Benoit, Mississippi
Current Conditions -  °F | °C
As of 3:53 AM on Friday 21 Nov 2014 (Local Time) from KGLH Reporting Station
Overcast Overcast  
Wind Chill: 52°   Ceiling: 8000
Heat Index: 52°   Visibility: 9mi
Dew Point: 48°   Wind: 5mph
Humidity: 86%   Direction: 120°ESE
Pressure: 30.23"   Gusts: NA
Location:  33.65°N, 91.01°W
Report Text: KGLH 210953Z AUTO 12004KT 9SM SCT055 OVC080 11/09 A3023 RMK AO2 SLP244 T01110089
Loading
Personal Weather Stations






























Interactive Weather Map New forecast layout! Learn more

10-Day Weather Forecast

Advertisements
Track Severe Weather on mobile